Terminal Aerodrome Forecast
Issued by NWS Lake Charles, LA

Current Version | Previous Version | Text Only | Print | Product List | Glossary On
Versions: 1 2 3 4 5 6 7 8 9 10 11 12 13 14 15 16 17
000
FTUS44 KLCH 281739
TAFAEX
TAF
KAEX 281739Z 2818/2918 13010KT P6SM SCT030
     FM290600 15006KT P6SM BKN012
     FM291200 15006KT 3SM BR OVC009
     FM291500 15009KT P6SM BKN015=

USA.gov is the U.S. government's official web portal to all federal, state and local government web resources and services.